createdAt,value
2023-03-29T00:01:35.903Z,1.60
2023-03-29T00:06:38.566Z,2.00
2023-03-29T00:11:41.073Z,1.27
2023-03-29T00:16:44.910Z,1.40
2023-03-29T00:21:47.236Z,1.40
2023-03-29T00:26:52.108Z,1.38
2023-03-29T00:32:03.652Z,1.52
2023-03-29T00:37:08.091Z,1.85
2023-03-29T00:42:15.674Z,1.60
2023-03-29T00:47:22.754Z,1.50
2023-03-29T00:52:30.112Z,1.60
2023-03-29T00:57:33.960Z,1.38
2023-03-29T01:02:39.628Z,1.50
2023-03-29T01:08:04.035Z,1.40
2023-03-29T01:13:16.928Z,1.40
2023-03-29T01:18:22.223Z,1.38
2023-03-29T01:23:46.997Z,1.20
2023-03-29T01:29:14.530Z,1.70
2023-03-29T01:34:27.224Z,1.70
2023-03-29T01:39:29.015Z,1.40
2023-03-29T01:44:40.406Z,1.40
2023-03-29T01:49:49.941Z,1.77
2023-03-29T01:55:14.984Z,1.67
2023-03-29T02:00:20.362Z,1.90
2023-03-29T02:05:24.386Z,1.55
2023-03-29T02:10:27.389Z,1.83
2023-03-29T02:15:29.408Z,1.70
2023-03-29T02:20:39.352Z,1.70
2023-03-29T02:25:42.972Z,1.48
2023-03-29T02:31:26.420Z,1.63
2023-03-29T02:36:54.665Z,1.92
2023-03-29T02:41:57.424Z,1.95
2023-03-29T02:47:05.964Z,2.00
2023-03-29T02:52:14.687Z,1.90
2023-03-29T02:57:16.524Z,2.00
2023-03-29T03:02:18.507Z,1.83
2023-03-29T03:07:20.600Z,1.65
2023-03-29T03:12:22.661Z,1.55
2023-03-29T03:17:24.801Z,1.27
2023-03-29T03:22:26.939Z,1.45
2023-03-29T03:27:29.104Z,1.60
2023-03-29T03:32:31.953Z,1.60
2023-03-29T03:37:33.919Z,2.00
2023-03-29T03:42:35.814Z,1.95
2023-03-29T03:47:38.174Z,1.20
2023-03-29T03:52:40.209Z,2.25
2023-03-29T03:57:42.273Z,2.13
2023-03-29T04:02:44.062Z,1.83
2023-03-29T04:07:46.410Z,2.20
2023-03-29T04:12:48.438Z,1.70
2023-03-29T04:17:50.543Z,1.92
2023-03-29T04:22:52.422Z,2.10
2023-03-29T04:27:54.518Z,4.40
2023-03-29T04:32:56.489Z,3.00
2023-03-29T04:37:58.520Z,2.53
2023-03-29T04:43:01.020Z,2.53
2023-03-29T04:48:02.925Z,2.60
2023-03-29T04:53:04.794Z,2.50
2023-03-29T04:58:06.779Z,2.20
2023-03-29T05:03:11.842Z,3.63
2023-03-29T05:08:13.651Z,2.90
2023-03-29T05:13:15.573Z,2.80
2023-03-29T05:18:17.378Z,2.63
2023-03-29T05:23:20.477Z,3.72
2023-03-29T05:28:22.474Z,4.10
2023-03-29T05:33:24.451Z,3.63
2023-03-29T05:38:26.452Z,8.13
2023-03-29T05:43:28.906Z,5.85
2023-03-29T05:48:31.551Z,3.65
2023-03-29T05:53:33.606Z,4.70
2023-03-29T05:58:36.440Z,5.35
2023-03-29T06:03:39.176Z,5.55
2023-03-29T06:08:41.522Z,4.00
2023-03-29T06:13:44.040Z,4.15
2023-03-29T06:18:46.472Z,4.07
2023-03-29T06:23:48.586Z,4.65
2023-03-29T06:28:52.295Z,7.47
2023-03-29T06:33:54.574Z,5.75
2023-03-29T06:38:56.733Z,5.20
2023-03-29T06:43:59.313Z,5.30
2023-03-29T06:49:01.576Z,3.92
2023-03-29T06:54:04.454Z,4.40
2023-03-29T06:59:07.011Z,4.72
2023-03-29T07:04:12.369Z,3.85
2023-03-29T07:09:18.335Z,5.03
2023-03-29T07:14:22.013Z,11.20
2023-03-29T07:19:30.462Z,8.10
2023-03-29T07:24:33.135Z,7.05
2023-03-29T07:29:36.430Z,2.58
2023-03-29T07:34:38.864Z,2.35
2023-03-29T07:39:40.740Z,2.08
2023-03-29T07:44:43.168Z,1.90
2023-03-29T07:49:47.950Z,1.80
2023-03-29T07:54:50.723Z,2.00
2023-03-29T07:59:54.228Z,2.28
2023-03-29T08:04:57.686Z,1.50
2023-03-29T08:10:00.723Z,1.73
2023-03-29T08:15:02.899Z,1.98
2023-03-29T08:20:06.785Z,3.83
2023-03-29T08:25:10.011Z,2.55
2023-03-29T08:30:12.727Z,4.10
2023-03-29T08:35:14.957Z,2.80
2023-03-29T08:40:21.800Z,1.10
2023-03-29T08:45:37.205Z,1.80
2023-03-29T08:50:50.547Z,1.80
2023-03-29T08:55:55.749Z,1.70
2023-03-29T09:01:05.135Z,1.05
2023-03-29T09:06:09.698Z,1.27
2023-03-29T09:11:24.045Z,0.98
2023-03-29T09:16:36.399Z,1.33
2023-03-29T09:22:03.184Z,2.42
2023-03-29T09:27:15.528Z,1.50
2023-03-29T09:32:31.496Z,1.00
2023-03-29T09:37:35.691Z,0.88
2023-03-29T09:42:38.679Z,0.98
2023-03-29T09:47:50.392Z,1.02
2023-03-29T09:52:52.398Z,1.77
2023-03-29T09:57:56.249Z,1.38
2023-03-29T10:02:59.029Z,0.90
2023-03-29T10:08:01.585Z,1.42
2023-03-29T10:13:13.031Z,1.63
2023-03-29T10:23:19.322Z,1.08
2023-03-29T10:28:22.821Z,2.15
2023-03-29T10:33:27.851Z,1.20
2023-03-29T10:38:30.225Z,1.52
2023-03-29T10:43:43.107Z,1.00
2023-03-29T10:48:50.683Z,1.90
2023-03-29T10:53:52.835Z,2.00
2023-03-29T10:59:22.993Z,2.80
2023-03-29T11:04:46.670Z,1.65
2023-03-29T11:09:57.174Z,1.48
2023-03-29T11:15:31.013Z,1.27
2023-03-29T11:21:06.703Z,1.05
2023-03-29T11:26:25.250Z,1.40
2023-03-29T11:31:37.981Z,1.35
2023-03-29T11:36:58.175Z,1.40
2023-03-29T11:42:29.480Z,1.30
2023-03-29T11:47:35.318Z,1.38
2023-03-29T11:52:44.097Z,1.02
2023-03-29T11:58:01.026Z,1.23
2023-03-29T12:03:18.004Z,1.33
2023-03-29T12:08:37.853Z,1.10
2023-03-29T12:13:52.725Z,1.35
2023-03-29T12:19:03.109Z,1.33
2023-03-29T12:24:05.163Z,1.00
2023-03-29T12:29:36.545Z,1.00
2023-03-29T12:35:00.214Z,2.63
2023-03-29T12:40:11.983Z,0.93
2023-03-29T12:45:43.169Z,1.23
2023-03-29T12:50:53.622Z,1.10
2023-03-29T12:55:55.963Z,1.33
2023-03-29T13:01:06.523Z,1.38
2023-03-29T13:06:11.123Z,1.02
2023-03-29T13:11:34.822Z,1.33
2023-03-29T13:16:37.264Z,1.20
2023-03-29T13:22:07.486Z,1.55
2023-03-29T13:27:25.185Z,1.23
2023-03-29T13:32:37.069Z,1.10
2023-03-29T13:37:48.839Z,1.30
2023-03-29T13:43:09.717Z,1.90
2023-03-29T13:48:27.435Z,1.30
2023-03-29T13:53:41.025Z,1.77
2023-03-29T13:59:05.693Z,1.20
2023-03-29T14:04:13.987Z,1.15
2023-03-29T14:09:18.458Z,1.20
2023-03-29T14:14:28.515Z,0.90
2023-03-29T14:19:36.992Z,1.75
2023-03-29T14:24:41.291Z,1.20
2023-03-29T14:29:47.398Z,1.23
2023-03-29T14:34:50.481Z,1.67
2023-03-29T14:39:53.631Z,1.38
2023-03-29T14:45:04.471Z,1.40
2023-03-29T14:50:10.187Z,1.60
2023-03-29T14:55:13.061Z,3.45
2023-03-29T15:00:22.237Z,1.05
2023-03-29T15:05:41.180Z,1.10
2023-03-29T15:10:44.987Z,0.95
2023-03-29T15:15:51.078Z,0.93
2023-03-29T15:20:53.177Z,1.00
2023-03-29T15:25:58.842Z,0.90
2023-03-29T15:31:10.017Z,1.10
2023-03-29T15:36:14.226Z,1.20
2023-03-29T15:41:16.114Z,1.10
2023-03-29T15:46:17.902Z,2.00
2023-03-29T15:51:19.955Z,1.23
2023-03-29T15:56:22.965Z,0.90
2023-03-29T16:01:34.697Z,1.20
2023-03-29T16:06:36.871Z,1.33
2023-03-29T16:11:40.829Z,0.75
2023-03-29T16:16:42.757Z,0.95
2023-03-29T16:21:45.339Z,1.05
2023-03-29T16:26:47.988Z,2.90
2023-03-29T16:31:50.525Z,2.97
2023-03-29T16:36:53.297Z,5.63
2023-03-29T16:41:55.330Z,14.77
2023-03-29T16:46:58.528Z,2.85
2023-03-29T16:52:00.466Z,5.72
2023-03-29T16:57:02.572Z,1.80
2023-03-29T17:02:04.300Z,1.23
2023-03-29T17:07:07.129Z,1.33
2023-03-29T17:12:09.355Z,2.50
2023-03-29T17:17:11.474Z,2.90
2023-03-29T17:22:13.303Z,20.17
2023-03-29T17:27:16.719Z,7.80
2023-03-29T17:32:18.452Z,2.75
2023-03-29T17:37:24.343Z,12.18
2023-03-29T17:42:26.425Z,4.68
2023-03-29T17:47:28.201Z,1.98
2023-03-29T17:52:29.955Z,2.45
2023-03-29T17:57:31.754Z,1.52
2023-03-29T18:02:33.531Z,1.58
2023-03-29T18:07:36.185Z,2.80
2023-03-29T18:12:38.359Z,12.10
2023-03-29T18:17:40.569Z,5.00
2023-03-29T18:22:44.119Z,4.70
2023-03-29T18:27:46.216Z,16.42
2023-03-29T18:32:48.148Z,6.43
2023-03-29T18:37:52.273Z,1.23
2023-03-29T18:42:54.165Z,9.02
2023-03-29T18:47:55.974Z,13.93
2023-03-29T18:52:57.928Z,7.47
2023-03-29T18:57:59.985Z,7.40
2023-03-29T19:03:02.571Z,4.70
2023-03-29T19:08:05.877Z,28.73
2023-03-29T19:13:07.981Z,16.15
2023-03-29T19:18:10.164Z,17.17
2023-03-29T19:23:11.971Z,11.80
2023-03-29T19:28:13.758Z,10.02
2023-03-29T19:33:15.993Z,19.98
2023-03-29T19:38:18.880Z,26.77
2023-03-29T19:43:20.925Z,11.63
2023-03-29T19:48:24.828Z,6.07
2023-03-29T19:53:27.123Z,5.35
2023-03-29T19:58:28.931Z,8.73
2023-03-29T20:03:34.197Z,5.35
2023-03-29T20:08:38.763Z,7.88
2023-03-29T20:13:45.160Z,5.20
2023-03-29T20:18:47.225Z,17.25
2023-03-29T20:23:49.055Z,15.30
2023-03-29T20:28:51.208Z,8.02
2023-03-29T20:33:53.715Z,7.65
2023-03-29T20:38:56.536Z,6.95
2023-03-29T20:43:58.816Z,5.88
2023-03-29T20:49:01.915Z,6.35
2023-03-29T20:54:05.529Z,5.78
2023-03-29T20:59:10.671Z,5.35
2023-03-29T21:04:13.371Z,4.95
2023-03-29T21:09:16.334Z,5.32
2023-03-29T21:14:22.332Z,4.00
2023-03-29T21:19:24.822Z,3.72
2023-03-29T21:24:26.910Z,5.60
2023-03-29T21:29:28.985Z,4.78
2023-03-29T21:34:31.249Z,4.32
2023-03-29T21:39:33.397Z,15.05
2023-03-29T21:44:35.245Z,14.50
2023-03-29T21:49:37.705Z,6.00
2023-03-29T21:54:39.700Z,4.88
2023-03-29T21:59:41.703Z,3.15
2023-03-29T22:04:43.491Z,3.50
2023-03-29T22:09:46.736Z,2.80
2023-03-29T22:14:49.253Z,3.22
2023-03-29T22:19:51.826Z,3.67
2023-03-29T22:24:55.413Z,3.53
2023-03-29T22:29:58.753Z,3.90
2023-03-29T22:35:00.554Z,4.88
2023-03-29T22:40:02.349Z,4.70
2023-03-29T22:45:05.279Z,4.28
2023-03-29T22:50:07.577Z,4.18
2023-03-29T22:55:09.602Z,3.63
2023-03-29T23:00:13.129Z,3.75
2023-03-29T23:05:14.937Z,3.90
2023-03-29T23:10:17.173Z,2.97
2023-03-29T23:15:23.173Z,3.60
2023-03-29T23:20:24.897Z,3.47
2023-03-29T23:25:27.424Z,3.75
2023-03-29T23:30:32.242Z,3.42
2023-03-29T23:35:34.309Z,4.13
2023-03-29T23:40:36.502Z,3.67
2023-03-29T23:45:39.656Z,4.55
2023-03-29T23:50:46.560Z,3.22
2023-03-29T23:55:48.801Z,2.50
